Madrid Aeropuerto

latitud = 40° 28' 00''N | longitud = 003° 33' 20''W
667 metros sobre el nivel del mar |

Fecha, hora, temperatura, viento dirección y velocidad, humedad y presión.

  • 25-09-2017 00:00:00 | 21.20°C | Sudeste |9.00 km/h | 37.00% | 952.50 hPa
  • 24-09-2017 23:00:00 | 22.00°C | Sudeste |8.00 km/h | 35.00% | 952.30 hPa
  • 24-09-2017 22:00:00 | 25.00°C | Sudoeste |8.00 km/h | 30.00% | 952.10 hPa
  • 24-09-2017 21:00:00 | 25.30°C | Sur |11.00 km/h | 26.00% | 951.60 hPa
  • 24-09-2017 20:00:00 | 27.40°C | Sur |13.00 km/h | 24.00% | 951.60 hPa
  • 24-09-2017 19:00:00 | 29.10°C | Sudoeste |18.00 km/h | 23.00% | 951.50 hPa
  • 24-09-2017 18:00:00 | 29.40°C | Sudoeste |19.00 km/h | 22.00% | 951.50 hPa
  • 24-09-2017 17:00:00 | 29.40°C | Sudoeste |22.00 km/h | 24.00% | 952.00 hPa
  • 24-09-2017 16:00:00 | 29.30°C | Sudoeste |13.00 km/h | 25.00% | 952.50 hPa
  • 24-09-2017 15:00:00 | 28.40°C | Sudoeste |17.00 km/h | 27.00% | 952.80 hPa
  • 24-09-2017 14:00:00 | 26.90°C | Sur |8.00 km/h | 31.00% | 953.40 hPa
  • 24-09-2017 13:00:00 | 24.50°C | Sur |6.00 km/h | 35.00% | 954.10 hPa
  • 24-09-2017 12:00:00 | 22.20°C | Sur |4.00 km/h | 40.00% | 954.60 hPa
  • 24-09-2017 11:00:00 | 19.00°C | Nordeste |4.00 km/h | 46.00% | 954.80 hPa
  • 24-09-2017 10:00:00 | 15.90°C | Oeste |4.00 km/h | 57.00% | 954.30 hPa
  • 24-09-2017 09:00:00 | 12.30°C | Norte |7.00 km/h | 71.00% | 953.90 hPa
  • 24-09-2017 08:00:00 | 11.90°C | Norte |4.00 km/h | 69.00% | 953.60 hPa
  • 24-09-2017 07:00:00 | 13.00°C | Norte |6.00 km/h | 65.00% | 953.20 hPa
  • 24-09-2017 06:00:00 | 13.10°C | Norte |7.00 km/h | 63.00% | 953.10 hPa
  • 24-09-2017 05:00:00 | 13.70°C | Norte |7.00 km/h | 61.00% | 953.00 hPa
  • 24-09-2017 04:00:00 | 14.10°C | Noroeste |7.00 km/h | 58.00% | 953.00 hPa
  • 24-09-2017 03:00:00 | 14.90°C | Norte |6.00 km/h | 56.00% | 953.00 hPa
  • 24-09-2017 02:00:00 | 16.10°C | Norte |7.00 km/h | 52.00% | 952.80 hPa
  • 24-09-2017 01:00:00 | 17.00°C | Norte |6.00 km/h | 49.00% | 952.70 hPa
    • Datos gráficos mensuales en Madrid: